Aérodrome :
LOGIN :

S'inscrire | Disclaimer

   EN    FR    IT 

 










Légende :    VFR   VFR Marginal   IFR   IFR Intensif   IFR Très Intensif
Visi : 
Plafond : 
>= 8 km
>= 3000ft
5 à 8 km
1000 à 3000 ft
1500m à 5 km
500 à 1000 ft
800 à 1500m
200 à 500 ft
< 800m
< 200 ft
Symboles :   Orages  Brouillard  Fortes neiges  Fortes précipitations  Vent > 20 kt
SIGMETs :   Divers  Orages  Givrage  Turbulence  Onde Orograph.  Cendres Volcan.







- Altitude de l'aérodrome : 125 ft
- Code IATA : MGL


EDLN - Mönchengladbach

DERNIER METAR :
  • 211850Z AUTO 31008KT 270V330 9999 // OVC015/// 13/11 Q1016

METARs EXPIRÉS :
  • 211820Z 30006KT 270V330 9999 OVC017 13/11 Q1016
  • 211750Z 30007KT 260V320 9999 OVC015 13/11 Q1015
  • 211720Z 30007KT 260V320 8000 OVC012 13/11 Q1015
  • 211650Z 29006KT 240V320 8000 -RA OVC012 12/11 Q1015
  • 211620Z 30007KT 5000 -RA BR OVC012 12/11 Q1015

TAF TAF EDLN
Valide du 21 à 18h jusqu'au 22 à 03h UTC


211700Z 2118/2203 30010KT 8000 SCT007 BKN012
TEMPO 2118/2201 4000 -RA BR BKN007
TEMPO 2201/2203 2500 -DZRA BKN006
Pas de NOTAMs connus pour ce terrain.



MET'MAP, la Météo Aéronautique d'un coup d'oeil ! - Copyright ORBIFLY Décembre 2007 - Disclaimer

ORBIFLY MET'MAP TEAM :

Programmation & Développement : Alexandra Zaïnal
Conception & Développement : Baudouin d'Aumeries
Co-Programmation & Développement : Marc-Olivier Méhu
Soutien technique & logistique : Manuel Goepfert

Contact : metmap@orbifly.com




SOURCES & CREDITS :

   NOAA